sensor_id;sensor_type;location;lat;lon;timestamp;P1;durP1;ratioP1;P2;durP2;ratioP2
33786;SDS011;29742;51.540;9.358;2023-10-09T00:04:40;0.73;;;0.35;;
33786;SDS011;29742;51.540;9.358;2023-10-09T00:09:45;0.20;;;0.13;;
33786;SDS011;29742;51.540;9.358;2023-10-09T00:14:48;0.47;;;0.32;;
33786;SDS011;29742;51.540;9.358;2023-10-09T00:19:50;0.10;;;0.10;;
33786;SDS011;29742;51.540;9.358;2023-10-09T00:24:59;0.38;;;0.20;;
33786;SDS011;29742;51.540;9.358;2023-10-09T00:30:13;0.20;;;0.20;;
33786;SDS011;29742;51.540;9.358;2023-10-09T00:35:18;0.52;;;0.28;;
33786;SDS011;29742;51.540;9.358;2023-10-09T00:40:37;0.17;;;0.17;;
33786;SDS011;29742;51.540;9.358;2023-10-09T00:45:45;0.40;;;0.22;;
33786;SDS011;29742;51.540;9.358;2023-10-09T00:50:46;0.30;;;0.20;;
33786;SDS011;29742;51.540;9.358;2023-10-09T00:55:52;0.30;;;0.20;;
33786;SDS011;29742;51.540;9.358;2023-10-09T01:00:56;0.10;;;0.10;;
33786;SDS011;29742;51.540;9.358;2023-10-09T01:06:01;0.30;;;0.10;;
33786;SDS011;29742;51.540;9.358;2023-10-09T01:11:11;0.15;;;0.15;;
33786;SDS011;29742;51.540;9.358;2023-10-09T01:16:23;0.57;;;0.20;;
33786;SDS011;29742;51.540;9.358;2023-10-09T01:21:24;0.40;;;0.20;;
33786;SDS011;29742;51.540;9.358;2023-10-09T01:26:26;0.25;;;0.15;;
33786;SDS011;29742;51.540;9.358;2023-10-09T01:31:26;0.22;;;0.10;;
33786;SDS011;29742;51.540;9.358;2023-10-09T01:36:27;0.10;;;0.10;;
33786;SDS011;29742;51.540;9.358;2023-10-09T01:41:34;0.55;;;0.10;;
33786;SDS011;29742;51.540;9.358;2023-10-09T01:46:34;0.30;;;0.20;;
33786;SDS011;29742;51.540;9.358;2023-10-09T01:51:34;0.13;;;0.10;;
33786;SDS011;29742;51.540;9.358;2023-10-09T01:56:36;0.10;;;0.05;;
33786;SDS011;29742;51.540;9.358;2023-10-09T02:01:39;0.10;;;0.10;;
33786;SDS011;29742;51.540;9.358;2023-10-09T02:06:47;0.30;;;0.20;;
33786;SDS011;29742;51.540;9.358;2023-10-09T02:11:52;0.38;;;0.20;;
33786;SDS011;29742;51.540;9.358;2023-10-09T02:16:52;0.28;;;0.20;;
33786;SDS011;29742;51.540;9.358;2023-10-09T02:22:02;0.20;;;0.20;;
33786;SDS011;29742;51.540;9.358;2023-10-09T02:27:16;0.20;;;0.13;;
33786;SDS011;29742;51.540;9.358;2023-10-09T02:32:26;0.55;;;0.40;;
33786;SDS011;29742;51.540;9.358;2023-10-09T02:37:28;0.10;;;0.10;;
33786;SDS011;29742;51.540;9.358;2023-10-09T02:42:30;0.10;;;0.10;;
33786;SDS011;29742;51.540;9.358;2023-10-09T02:47:31;0.30;;;0.10;;
33786;SDS011;29742;51.540;9.358;2023-10-09T02:52:37;0.00;;;0.00;;
33786;SDS011;29742;51.540;9.358;2023-10-09T02:57:41;0.30;;;0.20;;
33786;SDS011;29742;51.540;9.358;2023-10-09T03:02:43;0.10;;;0.10;;
33786;SDS011;29742;51.540;9.358;2023-10-09T03:07:49;0.30;;;0.20;;
33786;SDS011;29742;51.540;9.358;2023-10-09T03:12:52;0.00;;;0.00;;
33786;SDS011;29742;51.540;9.358;2023-10-09T03:17:53;0.28;;;0.22;;
33786;SDS011;29742;51.540;9.358;2023-10-09T03:22:53;0.63;;;0.10;;
33786;SDS011;29742;51.540;9.358;2023-10-09T03:27:54;0.30;;;0.10;;
33786;SDS011;29742;51.540;9.358;2023-10-09T03:32:56;0.22;;;0.10;;
33786;SDS011;29742;51.540;9.358;2023-10-09T03:37:57;0.20;;;0.20;;
33786;SDS011;29742;51.540;9.358;2023-10-09T03:43:02;0.20;;;0.20;;
33786;SDS011;29742;51.540;9.358;2023-10-09T03:48:04;0.50;;;0.22;;
33786;SDS011;29742;51.540;9.358;2023-10-09T03:53:23;0.63;;;0.20;;
33786;SDS011;29742;51.540;9.358;2023-10-09T03:58:23;0.55;;;0.30;;
33786;SDS011;29742;51.540;9.358;2023-10-09T04:15:10;0.20;;;0.20;;
33786;SDS011;29742;51.540;9.358;2023-10-09T04:20:15;0.30;;;0.20;;
33786;SDS011;29742;51.540;9.358;2023-10-09T04:25:16;0.10;;;0.10;;
33786;SDS011;29742;51.540;9.358;2023-10-09T04:30:25;0.10;;;0.10;;
33786;SDS011;29742;51.540;9.358;2023-10-09T04:35:29;0.17;;;0.10;;
33786;SDS011;29742;51.540;9.358;2023-10-09T04:40:30;0.30;;;0.30;;
33786;SDS011;29742;51.540;9.358;2023-10-09T04:45:46;0.20;;;0.20;;
33786;SDS011;29742;51.540;9.358;2023-10-09T04:51:06;0.57;;;0.30;;
33786;SDS011;29742;51.540;9.358;2023-10-09T04:56:22;0.50;;;0.20;;
33786;SDS011;29742;51.540;9.358;2023-10-09T05:01:24;0.10;;;0.10;;
33786;SDS011;29742;51.540;9.358;2023-10-09T05:06:36;0.50;;;0.20;;
33786;SDS011;29742;51.540;9.358;2023-10-09T05:11:54;0.45;;;0.25;;
33786;SDS011;29742;51.540;9.358;2023-10-09T05:17:00;0.10;;;0.10;;
33786;SDS011;29742;51.540;9.358;2023-10-09T05:22:01;0.30;;;0.10;;
33786;SDS011;29742;51.540;9.358;2023-10-09T05:27:07;1.73;;;0.30;;
33786;SDS011;29742;51.540;9.358;2023-10-09T05:32:24;0.20;;;0.10;;
33786;SDS011;29742;51.540;9.358;2023-10-09T05:37:31;0.30;;;0.10;;
33786;SDS011;29742;51.540;9.358;2023-10-09T05:42:33;0.20;;;0.20;;
33786;SDS011;29742;51.540;9.358;2023-10-09T05:47:46;0.32;;;0.30;;
33786;SDS011;29742;51.540;9.358;2023-10-09T05:52:59;0.20;;;0.10;;
33786;SDS011;29742;51.540;9.358;2023-10-09T05:57:59;0.30;;;0.20;;
33786;SDS011;29742;51.540;9.358;2023-10-09T06:03:18;0.30;;;0.13;;
33786;SDS011;29742;51.540;9.358;2023-10-09T06:08:21;0.10;;;0.10;;
33786;SDS011;29742;51.540;9.358;2023-10-09T06:13:41;0.20;;;0.17;;
33786;SDS011;29742;51.540;9.358;2023-10-09T06:18:46;0.77;;;0.35;;
33786;SDS011;29742;51.540;9.358;2023-10-09T06:24:08;0.50;;;0.32;;
33786;SDS011;29742;51.540;9.358;2023-10-09T06:29:09;0.52;;;0.30;;
33786;SDS011;29742;51.540;9.358;2023-10-09T06:34:16;0.60;;;0.35;;
33786;SDS011;29742;51.540;9.358;2023-10-09T06:39:18;0.43;;;0.30;;
33786;SDS011;29742;51.540;9.358;2023-10-09T06:44:37;0.30;;;0.20;;
33786;SDS011;29742;51.540;9.358;2023-10-09T06:49:53;0.20;;;0.20;;
33786;SDS011;29742;51.540;9.358;2023-10-09T06:55:12;0.30;;;0.20;;
33786;SDS011;29742;51.540;9.358;2023-10-09T07:00:19;0.20;;;0.15;;
33786;SDS011;29742;51.540;9.358;2023-10-09T07:05:38;0.10;;;0.10;;
33786;SDS011;29742;51.540;9.358;2023-10-09T07:11:02;0.57;;;0.30;;
33786;SDS011;29742;51.540;9.358;2023-10-09T07:16:21;0.10;;;0.10;;
33786;SDS011;29742;51.540;9.358;2023-10-09T07:21:28;0.63;;;0.35;;
33786;SDS011;29742;51.540;9.358;2023-10-09T07:26:28;0.32;;;0.25;;
33786;SDS011;29742;51.540;9.358;2023-10-09T07:31:48;0.25;;;0.20;;
33786;SDS011;29742;51.540;9.358;2023-10-09T07:36:57;0.40;;;0.30;;
33786;SDS011;29742;51.540;9.358;2023-10-09T07:41:57;0.25;;;0.20;;
33786;SDS011;29742;51.540;9.358;2023-10-09T07:47:15;0.80;;;0.30;;
33786;SDS011;29742;51.540;9.358;2023-10-09T07:52:19;0.73;;;0.30;;
33786;SDS011;29742;51.540;9.358;2023-10-09T07:57:21;0.90;;;0.30;;
33786;SDS011;29742;51.540;9.358;2023-10-09T08:02:28;0.47;;;0.30;;
33786;SDS011;29742;51.540;9.358;2023-10-09T08:07:31;2.05;;;0.50;;
33786;SDS011;29742;51.540;9.358;2023-10-09T08:12:35;1.20;;;0.20;;
33786;SDS011;29742;51.540;9.358;2023-10-09T08:17:53;0.88;;;0.20;;
33786;SDS011;29742;51.540;9.358;2023-10-09T08:28:22;0.73;;;0.57;;
33786;SDS011;29742;51.540;9.358;2023-10-09T08:33:22;0.40;;;0.13;;
33786;SDS011;29742;51.540;9.358;2023-10-09T08:38:25;0.50;;;0.38;;
33786;SDS011;29742;51.540;9.358;2023-10-09T08:43:26;0.43;;;0.30;;
33786;SDS011;29742;51.540;9.358;2023-10-09T08:48:30;1.10;;;0.50;;
33786;SDS011;29742;51.540;9.358;2023-10-09T08:53:31;0.32;;;0.30;;
33786;SDS011;29742;51.540;9.358;2023-10-09T08:58:33;0.73;;;0.40;;
33786;SDS011;29742;51.540;9.358;2023-10-09T09:03:38;0.93;;;0.60;;
33786;SDS011;29742;51.540;9.358;2023-10-09T09:08:39;1.13;;;0.63;;
33786;SDS011;29742;51.540;9.358;2023-10-09T09:13:40;0.95;;;0.55;;
33786;SDS011;29742;51.540;9.358;2023-10-09T09:18:49;0.95;;;0.65;;
33786;SDS011;29742;51.540;9.358;2023-10-09T09:24:00;1.15;;;0.77;;
33786;SDS011;29742;51.540;9.358;2023-10-09T09:29:01;2.05;;;0.60;;
33786;SDS011;29742;51.540;9.358;2023-10-09T09:34:04;1.90;;;0.70;;
33786;SDS011;29742;51.540;9.358;2023-10-09T09:39:12;2.08;;;0.75;;
33786;SDS011;29742;51.540;9.358;2023-10-09T09:44:19;0.93;;;0.65;;
33786;SDS011;29742;51.540;9.358;2023-10-09T09:49:21;0.63;;;0.47;;
33786;SDS011;29742;51.540;9.358;2023-10-09T09:54:22;0.80;;;0.55;;
33786;SDS011;29742;51.540;9.358;2023-10-09T09:59:25;2.67;;;0.80;;
33786;SDS011;29742;51.540;9.358;2023-10-09T10:04:28;0.95;;;0.63;;
33786;SDS011;29742;51.540;9.358;2023-10-09T10:09:41;1.67;;;0.65;;
33786;SDS011;29742;51.540;9.358;2023-10-09T10:14:55;1.23;;;0.40;;
33786;SDS011;29742;51.540;9.358;2023-10-09T10:20:06;2.50;;;0.95;;
33786;SDS011;29742;51.540;9.358;2023-10-09T10:30:32;0.20;;;0.15;;
33786;SDS011;29742;51.540;9.358;2023-10-09T10:35:34;0.50;;;0.40;;
33786;SDS011;29742;51.540;9.358;2023-10-09T10:40:43;1.85;;;0.50;;
33786;SDS011;29742;51.540;9.358;2023-10-09T10:45:46;1.95;;;0.73;;
33786;SDS011;29742;51.540;9.358;2023-10-09T10:50:47;0.93;;;0.45;;
33786;SDS011;29742;51.540;9.358;2023-10-09T10:56:00;1.85;;;1.23;;
33786;SDS011;29742;51.540;9.358;2023-10-09T11:01:13;1.10;;;0.70;;
33786;SDS011;29742;51.540;9.358;2023-10-09T11:06:13;1.48;;;0.82;;
33786;SDS011;29742;51.540;9.358;2023-10-09T11:11:15;1.75;;;0.98;;
33786;SDS011;29742;51.540;9.358;2023-10-09T11:16:15;1.05;;;0.60;;
33786;SDS011;29742;51.540;9.358;2023-10-09T11:21:15;1.45;;;1.00;;
33786;SDS011;29742;51.540;9.358;2023-10-09T11:26:25;1.23;;;0.82;;
33786;SDS011;29742;51.540;9.358;2023-10-09T11:31:26;2.65;;;1.50;;
33786;SDS011;29742;51.540;9.358;2023-10-09T11:36:26;2.85;;;0.73;;
33786;SDS011;29742;51.540;9.358;2023-10-09T11:41:39;1.30;;;0.90;;
33786;SDS011;29742;51.540;9.358;2023-10-09T11:46:41;1.40;;;0.80;;
33786;SDS011;29742;51.540;9.358;2023-10-09T11:52:04;2.03;;;1.20;;
33786;SDS011;29742;51.540;9.358;2023-10-09T11:57:08;2.90;;;1.40;;
33786;SDS011;29742;51.540;9.358;2023-10-09T12:02:09;2.03;;;1.30;;
33786;SDS011;29742;51.540;9.358;2023-10-09T12:07:12;2.60;;;1.02;;
33786;SDS011;29742;51.540;9.358;2023-10-09T12:12:13;2.60;;;1.45;;
33786;SDS011;29742;51.540;9.358;2023-10-09T12:17:13;3.17;;;1.10;;
33786;SDS011;29742;51.540;9.358;2023-10-09T12:22:13;3.03;;;1.23;;
33786;SDS011;29742;51.540;9.358;2023-10-09T12:27:16;3.67;;;1.05;;
33786;SDS011;29742;51.540;9.358;2023-10-09T12:32:20;1.27;;;1.15;;
33786;SDS011;29742;51.540;9.358;2023-10-09T12:37:20;2.08;;;1.23;;
33786;SDS011;29742;51.540;9.358;2023-10-09T12:42:21;5.32;;;1.35;;
33786;SDS011;29742;51.540;9.358;2023-10-09T12:47:22;1.58;;;1.08;;
33786;SDS011;29742;51.540;9.358;2023-10-09T12:52:22;3.15;;;1.10;;
33786;SDS011;29742;51.540;9.358;2023-10-09T12:57:29;2.00;;;1.23;;
33786;SDS011;29742;51.540;9.358;2023-10-09T13:02:30;2.40;;;1.05;;
33786;SDS011;29742;51.540;9.358;2023-10-09T13:07:30;2.95;;;1.42;;
33786;SDS011;29742;51.540;9.358;2023-10-09T13:12:31;1.98;;;1.40;;
33786;SDS011;29742;51.540;9.358;2023-10-09T13:17:31;2.13;;;1.52;;
33786;SDS011;29742;51.540;9.358;2023-10-09T13:22:31;2.58;;;1.45;;
33786;SDS011;29742;51.540;9.358;2023-10-09T13:27:32;2.10;;;1.35;;
33786;SDS011;29742;51.540;9.358;2023-10-09T13:32:35;1.77;;;1.30;;
33786;SDS011;29742;51.540;9.358;2023-10-09T13:37:36;2.25;;;1.52;;
33786;SDS011;29742;51.540;9.358;2023-10-09T13:42:37;3.70;;;1.75;;
33786;SDS011;29742;51.540;9.358;2023-10-09T13:47:38;2.13;;;1.75;;
33786;SDS011;29742;51.540;9.358;2023-10-09T13:52:39;1.83;;;1.35;;
33786;SDS011;29742;51.540;9.358;2023-10-09T13:57:39;4.30;;;2.05;;
33786;SDS011;29742;51.540;9.358;2023-10-09T14:02:43;2.60;;;2.07;;
33786;SDS011;29742;51.540;9.358;2023-10-09T14:07:44;1.83;;;1.63;;
33786;SDS011;29742;51.540;9.358;2023-10-09T14:12:45;3.40;;;1.98;;
33786;SDS011;29742;51.540;9.358;2023-10-09T14:17:46;2.33;;;1.92;;
33786;SDS011;29742;51.540;9.358;2023-10-09T14:22:46;2.97;;;2.13;;
33786;SDS011;29742;51.540;9.358;2023-10-09T14:27:52;2.97;;;1.98;;
33786;SDS011;29742;51.540;9.358;2023-10-09T14:32:54;4.38;;;2.58;;
33786;SDS011;29742;51.540;9.358;2023-10-09T14:37:56;3.58;;;2.28;;
33786;SDS011;29742;51.540;9.358;2023-10-09T14:42:57;4.18;;;2.72;;
33786;SDS011;29742;51.540;9.358;2023-10-09T14:47:58;3.05;;;2.10;;
33786;SDS011;29742;51.540;9.358;2023-10-09T14:53:00;3.33;;;2.38;;
33786;SDS011;29742;51.540;9.358;2023-10-09T14:58:01;2.50;;;1.80;;
33786;SDS011;29742;51.540;9.358;2023-10-09T15:03:01;3.22;;;2.08;;
33786;SDS011;29742;51.540;9.358;2023-10-09T15:08:04;2.42;;;1.92;;
33786;SDS011;29742;51.540;9.358;2023-10-09T15:13:04;3.83;;;2.08;;
33786;SDS011;29742;51.540;9.358;2023-10-09T15:18:04;3.25;;;2.15;;
33786;SDS011;29742;51.540;9.358;2023-10-09T15:23:06;3.33;;;2.30;;
33786;SDS011;29742;51.540;9.358;2023-10-09T15:28:08;3.30;;;2.17;;
33786;SDS011;29742;51.540;9.358;2023-10-09T15:33:09;3.95;;;2.40;;
33786;SDS011;29742;51.540;9.358;2023-10-09T15:38:11;3.50;;;2.35;;
33786;SDS011;29742;51.540;9.358;2023-10-09T15:43:13;1.95;;;1.73;;
33786;SDS011;29742;51.540;9.358;2023-10-09T15:48:14;2.67;;;2.00;;
33786;SDS011;29742;51.540;9.358;2023-10-09T15:53:15;2.85;;;2.00;;
33786;SDS011;29742;51.540;9.358;2023-10-09T15:58:17;3.40;;;2.33;;
33786;SDS011;29742;51.540;9.358;2023-10-09T16:03:17;2.42;;;1.73;;
33786;SDS011;29742;51.540;9.358;2023-10-09T16:08:17;2.20;;;1.83;;
33786;SDS011;29742;51.540;9.358;2023-10-09T16:13:19;3.40;;;2.58;;
33786;SDS011;29742;51.540;9.358;2023-10-09T16:18:21;2.03;;;1.77;;
33786;SDS011;29742;51.540;9.358;2023-10-09T16:23:21;1.98;;;1.63;;
33786;SDS011;29742;51.540;9.358;2023-10-09T16:28:22;2.00;;;1.60;;
33786;SDS011;29742;51.540;9.358;2023-10-09T16:33:23;1.95;;;1.52;;
33786;SDS011;29742;51.540;9.358;2023-10-09T16:38:25;2.67;;;1.60;;
33786;SDS011;29742;51.540;9.358;2023-10-09T16:43:26;2.65;;;1.63;;
33786;SDS011;29742;51.540;9.358;2023-10-09T16:48:27;1.92;;;1.50;;
33786;SDS011;29742;51.540;9.358;2023-10-09T16:53:30;3.03;;;1.70;;
33786;SDS011;29742;51.540;9.358;2023-10-09T16:58:30;2.60;;;1.83;;
33786;SDS011;29742;51.540;9.358;2023-10-09T17:03:31;2.10;;;1.70;;
33786;SDS011;29742;51.540;9.358;2023-10-09T17:08:31;2.20;;;1.45;;
33786;SDS011;29742;51.540;9.358;2023-10-09T17:13:34;2.70;;;1.30;;
33786;SDS011;29742;51.540;9.358;2023-10-09T17:18:37;2.05;;;1.60;;
33786;SDS011;29742;51.540;9.358;2023-10-09T17:23:37;2.90;;;1.52;;
33786;SDS011;29742;51.540;9.358;2023-10-09T17:28:38;4.13;;;2.33;;
33786;SDS011;29742;51.540;9.358;2023-10-09T17:33:38;2.65;;;1.70;;
33786;SDS011;29742;51.540;9.358;2023-10-09T17:38:40;2.70;;;1.83;;
33786;SDS011;29742;51.540;9.358;2023-10-09T17:43:42;6.15;;;1.88;;
33786;SDS011;29742;51.540;9.358;2023-10-09T17:48:42;3.42;;;2.03;;
33786;SDS011;29742;51.540;9.358;2023-10-09T17:53:45;2.05;;;1.48;;
33786;SDS011;29742;51.540;9.358;2023-10-09T17:58:46;3.08;;;2.05;;
33786;SDS011;29742;51.540;9.358;2023-10-09T18:03:52;2.72;;;1.80;;
33786;SDS011;29742;51.540;9.358;2023-10-09T18:08:52;3.85;;;2.42;;
33786;SDS011;29742;51.540;9.358;2023-10-09T18:13:53;3.05;;;1.85;;
33786;SDS011;29742;51.540;9.358;2023-10-09T18:18:53;2.83;;;1.83;;
33786;SDS011;29742;51.540;9.358;2023-10-09T18:23:54;4.07;;;2.05;;
33786;SDS011;29742;51.540;9.358;2023-10-09T18:28:58;2.13;;;1.48;;
33786;SDS011;29742;51.540;9.358;2023-10-09T18:33:58;2.22;;;1.77;;
33786;SDS011;29742;51.540;9.358;2023-10-09T18:38:59;3.33;;;1.98;;
33786;SDS011;29742;51.540;9.358;2023-10-09T18:43:59;1.55;;;1.38;;
33786;SDS011;29742;51.540;9.358;2023-10-09T18:49:01;4.25;;;1.80;;
33786;SDS011;29742;51.540;9.358;2023-10-09T18:54:02;2.63;;;1.50;;
33786;SDS011;29742;51.540;9.358;2023-10-09T18:59:04;4.47;;;1.58;;
33786;SDS011;29742;51.540;9.358;2023-10-09T19:04:07;3.63;;;1.80;;
33786;SDS011;29742;51.540;9.358;2023-10-09T19:09:08;2.08;;;1.65;;
33786;SDS011;29742;51.540;9.358;2023-10-09T19:14:08;2.47;;;1.90;;
33786;SDS011;29742;51.540;9.358;2023-10-09T19:19:09;1.67;;;1.30;;
33786;SDS011;29742;51.540;9.358;2023-10-09T19:24:09;2.67;;;1.60;;
33786;SDS011;29742;51.540;9.358;2023-10-09T19:29:11;1.83;;;1.30;;
33786;SDS011;29742;51.540;9.358;2023-10-09T19:34:12;2.40;;;1.50;;
33786;SDS011;29742;51.540;9.358;2023-10-09T19:39:13;1.70;;;1.23;;
33786;SDS011;29742;51.540;9.358;2023-10-09T19:44:17;1.87;;;1.33;;
33786;SDS011;29742;51.540;9.358;2023-10-09T19:49:17;3.20;;;1.65;;
33786;SDS011;29742;51.540;9.358;2023-10-09T19:54:17;2.10;;;1.35;;
33786;SDS011;29742;51.540;9.358;2023-10-09T19:59:21;2.53;;;1.48;;
33786;SDS011;29742;51.540;9.358;2023-10-09T20:04:21;2.88;;;1.33;;
33786;SDS011;29742;51.540;9.358;2023-10-09T20:09:25;1.63;;;1.00;;
33786;SDS011;29742;51.540;9.358;2023-10-09T20:14:25;2.00;;;1.43;;
33786;SDS011;29742;51.540;9.358;2023-10-09T20:19:25;2.33;;;1.75;;
33786;SDS011;29742;51.540;9.358;2023-10-09T20:24:26;1.45;;;1.13;;
33786;SDS011;29742;51.540;9.358;2023-10-09T20:29:27;1.90;;;1.33;;
33786;SDS011;29742;51.540;9.358;2023-10-09T20:34:28;2.70;;;1.35;;
33786;SDS011;29742;51.540;9.358;2023-10-09T20:39:28;1.52;;;1.33;;
33786;SDS011;29742;51.540;9.358;2023-10-09T20:44:29;2.17;;;1.42;;
33786;SDS011;29742;51.540;9.358;2023-10-09T20:49:30;1.60;;;1.35;;
33786;SDS011;29742;51.540;9.358;2023-10-09T20:54:33;2.17;;;1.45;;
33786;SDS011;29742;51.540;9.358;2023-10-09T20:59:33;2.08;;;1.40;;
33786;SDS011;29742;51.540;9.358;2023-10-09T21:04:34;4.65;;;1.50;;
33786;SDS011;29742;51.540;9.358;2023-10-09T21:09:34;1.67;;;1.40;;
33786;SDS011;29742;51.540;9.358;2023-10-09T21:14:35;2.17;;;1.38;;
33786;SDS011;29742;51.540;9.358;2023-10-09T21:19:36;3.25;;;1.95;;
33786;SDS011;29742;51.540;9.358;2023-10-09T21:24:36;2.28;;;0.98;;
33786;SDS011;29742;51.540;9.358;2023-10-09T21:29:37;3.38;;;1.20;;
33786;SDS011;29742;51.540;9.358;2023-10-09T21:34:38;1.85;;;1.25;;
33786;SDS011;29742;51.540;9.358;2023-10-09T21:39:39;2.00;;;1.42;;
33786;SDS011;29742;51.540;9.358;2023-10-09T21:44:39;2.20;;;1.77;;
33786;SDS011;29742;51.540;9.358;2023-10-09T21:49:39;1.50;;;1.10;;
33786;SDS011;29742;51.540;9.358;2023-10-09T21:54:41;1.63;;;1.10;;
33786;SDS011;29742;51.540;9.358;2023-10-09T21:59:41;1.45;;;1.10;;
33786;SDS011;29742;51.540;9.358;2023-10-09T22:04:44;1.95;;;0.93;;
33786;SDS011;29742;51.540;9.358;2023-10-09T22:09:45;1.90;;;1.00;;
33786;SDS011;29742;51.540;9.358;2023-10-09T22:14:45;1.52;;;1.20;;
33786;SDS011;29742;51.540;9.358;2023-10-09T22:19:46;2.85;;;1.30;;
33786;SDS011;29742;51.540;9.358;2023-10-09T22:24:46;1.33;;;1.02;;
33786;SDS011;29742;51.540;9.358;2023-10-09T22:29:48;0.95;;;0.88;;
33786;SDS011;29742;51.540;9.358;2023-10-09T22:34:52;2.28;;;1.23;;
33786;SDS011;29742;51.540;9.358;2023-10-09T22:39:57;1.02;;;0.93;;
33786;SDS011;29742;51.540;9.358;2023-10-09T22:45:00;2.80;;;1.13;;
33786;SDS011;29742;51.540;9.358;2023-10-09T22:50:00;1.38;;;1.17;;
33786;SDS011;29742;51.540;9.358;2023-10-09T22:55:17;3.03;;;1.67;;
33786;SDS011;29742;51.540;9.358;2023-10-09T23:00:17;1.25;;;0.80;;
33786;SDS011;29742;51.540;9.358;2023-10-09T23:05:36;1.05;;;0.77;;
33786;SDS011;29742;51.540;9.358;2023-10-09T23:10:44;1.50;;;1.08;;
33786;SDS011;29742;51.540;9.358;2023-10-09T23:15:50;1.80;;;0.93;;
33786;SDS011;29742;51.540;9.358;2023-10-09T23:21:06;1.15;;;1.00;;
33786;SDS011;29742;51.540;9.358;2023-10-09T23:26:19;2.03;;;1.23;;
33786;SDS011;29742;51.540;9.358;2023-10-09T23:31:26;1.48;;;1.00;;
33786;SDS011;29742;51.540;9.358;2023-10-09T23:36:35;1.23;;;0.95;;
33786;SDS011;29742;51.540;9.358;2023-10-09T23:41:47;1.38;;;1.08;;
33786;SDS011;29742;51.540;9.358;2023-10-09T23:47:01;1.60;;;0.82;;
33786;SDS011;29742;51.540;9.358;2023-10-09T23:52:08;1.17;;;0.80;;
33786;SDS011;29742;51.540;9.358;2023-10-09T23:57:10;1.02;;;0.70;;
